sensor_id;sensor_type;location;lat;lon;timestamp;pressure;altitude;pressure_sealevel;temperature;humidity
19457;BME280;9867;48.094;11.478;2023-02-17T00:01:12;96071.25;;;9.12;70.47
19457;BME280;9867;48.094;11.478;2023-02-17T00:03:39;96072.69;;;9.14;73.29
19457;BME280;9867;48.094;11.478;2023-02-17T00:06:07;96067.06;;;9.19;72.50
19457;BME280;9867;48.094;11.478;2023-02-17T00:08:34;96071.88;;;9.14;71.95
19457;BME280;9867;48.094;11.478;2023-02-17T00:11:01;96063.56;;;9.12;71.14
19457;BME280;9867;48.094;11.478;2023-02-17T00:13:27;96065.00;;;9.06;74.77
19457;BME280;9867;48.094;11.478;2023-02-17T00:15:54;96058.28;;;9.13;73.30
19457;BME280;9867;48.094;11.478;2023-02-17T00:18:21;96058.91;;;9.15;72.65
19457;BME280;9867;48.094;11.478;2023-02-17T00:20:47;96054.63;;;9.08;72.83
19457;BME280;9867;48.094;11.478;2023-02-17T00:23:14;96055.56;;;9.07;73.80
19457;BME280;9867;48.094;11.478;2023-02-17T00:25:41;96057.81;;;9.02;73.40
19457;BME280;9867;48.094;11.478;2023-02-17T00:28:08;96052.75;;;8.94;73.11
19457;BME280;9867;48.094;11.478;2023-02-17T00:30:36;96042.81;;;8.91;73.91
19457;BME280;9867;48.094;11.478;2023-02-17T00:33:02;96052.22;;;8.98;74.42
19457;BME280;9867;48.094;11.478;2023-02-17T00:35:29;96049.66;;;8.98;74.28
19457;BME280;9867;48.094;11.478;2023-02-17T00:37:55;96048.09;;;8.97;76.24
19457;BME280;9867;48.094;11.478;2023-02-17T00:40:22;96057.22;;;8.92;73.33
19457;BME280;9867;48.094;11.478;2023-02-17T00:42:49;96052.91;;;8.92;75.00
19457;BME280;9867;48.094;11.478;2023-02-17T00:45:17;96055.63;;;8.91;75.34
19457;BME280;9867;48.094;11.478;2023-02-17T00:47:43;96056.53;;;8.98;76.27
19457;BME280;9867;48.094;11.478;2023-02-17T00:50:10;96059.25;;;9.04;76.48
19457;BME280;9867;48.094;11.478;2023-02-17T00:52:36;96063.09;;;9.00;76.17
19457;BME280;9867;48.094;11.478;2023-02-17T00:55:03;96061.19;;;9.02;75.31
19457;BME280;9867;48.094;11.478;2023-02-17T00:57:30;96067.13;;;8.95;76.21
19457;BME280;9867;48.094;11.478;2023-02-17T00:59:57;96056.41;;;8.91;77.82
19457;BME280;9867;48.094;11.478;2023-02-17T01:02:23;96058.34;;;8.89;79.13
19457;BME280;9867;48.094;11.478;2023-02-17T01:04:52;96056.75;;;8.88;78.72
19457;BME280;9867;48.094;11.478;2023-02-17T01:07:19;96058.03;;;8.84;77.44
19457;BME280;9867;48.094;11.478;2023-02-17T01:09:46;96058.66;;;8.78;78.02
19457;BME280;9867;48.094;11.478;2023-02-17T01:12:12;96054.38;;;8.70;78.16
19457;BME280;9867;48.094;11.478;2023-02-17T01:14:39;96056.13;;;8.70;79.85
19457;BME280;9867;48.094;11.478;2023-02-17T01:17:06;96049.09;;;8.64;81.00
19457;BME280;9867;48.094;11.478;2023-02-17T01:19:32;96065.72;;;8.60;79.74
19457;BME280;9867;48.094;11.478;2023-02-17T01:21:59;96063.00;;;8.53;80.21
19457;BME280;9867;48.094;11.478;2023-02-17T01:24:25;96053.09;;;8.58;79.91
19457;BME280;9867;48.094;11.478;2023-02-17T01:26:52;96062.38;;;8.51;81.30
19457;BME280;9867;48.094;11.478;2023-02-17T01:29:18;96057.25;;;8.51;82.54
19457;BME280;9867;48.094;11.478;2023-02-17T01:31:45;96046.72;;;8.46;79.84
19457;BME280;9867;48.094;11.478;2023-02-17T01:34:12;96048.78;;;8.50;81.08
19457;BME280;9867;48.094;11.478;2023-02-17T01:36:38;96043.66;;;8.59;78.95
19457;BME280;9867;48.094;11.478;2023-02-17T01:39:05;96044.31;;;8.61;77.52
19457;BME280;9867;48.094;11.478;2023-02-17T01:41:32;96042.72;;;8.68;76.92
19457;BME280;9867;48.094;11.478;2023-02-17T01:44:08;96035.03;;;8.68;75.56
19457;BME280;9867;48.094;11.478;2023-02-17T01:46:37;96041.28;;;8.73;75.35
19457;BME280;9867;48.094;11.478;2023-02-17T01:49:16;96031.97;;;8.80;73.91
19457;BME280;9867;48.094;11.478;2023-02-17T01:51:48;96035.31;;;8.89;73.93
19457;BME280;9867;48.094;11.478;2023-02-17T01:54:19;96025.25;;;8.87;72.76
19457;BME280;9867;48.094;11.478;2023-02-17T01:56:48;96030.19;;;8.89;72.27
19457;BME280;9867;48.094;11.478;2023-02-17T01:59:18;96033.38;;;8.91;69.23
19457;BME280;9867;48.094;11.478;2023-02-17T02:01:49;96032.09;;;8.95;69.21
19457;BME280;9867;48.094;11.478;2023-02-17T02:04:20;96031.59;;;9.00;69.52
19457;BME280;9867;48.094;11.478;2023-02-17T02:06:47;96041.50;;;9.11;67.56
19457;BME280;9867;48.094;11.478;2023-02-17T02:09:19;96029.16;;;9.14;66.60
19457;BME280;9867;48.094;11.478;2023-02-17T02:11:47;96038.94;;;9.11;67.05
19457;BME280;9867;48.094;11.478;2023-02-17T02:14:15;96029.91;;;9.23;67.15
19457;BME280;9867;48.094;11.478;2023-02-17T02:16:49;96026.38;;;9.24;66.15
19457;BME280;9867;48.094;11.478;2023-02-17T02:22:39;96027.66;;;9.28;66.01
19457;BME280;9867;48.094;11.478;2023-02-17T02:25:31;96024.94;;;9.30;66.47
19457;BME280;9867;48.094;11.478;2023-02-17T02:28:09;96033.44;;;9.22;68.42
19457;BME280;9867;48.094;11.478;2023-02-17T02:30:51;96026.38;;;9.24;66.78
19457;BME280;9867;48.094;11.478;2023-02-17T02:33:30;96030.69;;;9.32;65.57
19457;BME280;9867;48.094;11.478;2023-02-17T02:36:03;96038.03;;;9.35;66.26
19457;BME280;9867;48.094;11.478;2023-02-17T02:38:40;96034.22;;;9.31;67.31
19457;BME280;9867;48.094;11.478;2023-02-17T02:41:11;96038.84;;;9.35;68.05
19457;BME280;9867;48.094;11.478;2023-02-17T02:43:40;96035.16;;;9.38;66.45
19457;BME280;9867;48.094;11.478;2023-02-17T02:46:08;96041.75;;;9.32;66.71
19457;BME280;9867;48.094;11.478;2023-02-17T02:48:36;96037.09;;;9.36;66.44
19457;BME280;9867;48.094;11.478;2023-02-17T02:51:16;96042.22;;;9.36;67.32
19457;BME280;9867;48.094;11.478;2023-02-17T02:53:52;96033.72;;;9.35;67.19
19457;BME280;9867;48.094;11.478;2023-02-17T02:56:29;96031.31;;;9.42;67.15
19457;BME280;9867;48.094;11.478;2023-02-17T02:59:07;96030.34;;;9.43;67.99
19457;BME280;9867;48.094;11.478;2023-02-17T03:01:44;96026.84;;;9.36;68.44
19457;BME280;9867;48.094;11.478;2023-02-17T03:04:18;96017.72;;;9.33;69.33
19457;BME280;9867;48.094;11.478;2023-02-17T03:06:53;96026.22;;;9.26;70.03
19457;BME280;9867;48.094;11.478;2023-02-17T03:09:25;96020.31;;;9.25;69.17
19457;BME280;9867;48.094;11.478;2023-02-17T03:11:53;96016.16;;;9.24;70.72
19457;BME280;9867;48.094;11.478;2023-02-17T03:14:21;96009.78;;;9.20;70.19
19457;BME280;9867;48.094;11.478;2023-02-17T03:16:48;96007.22;;;9.20;71.49
19457;BME280;9867;48.094;11.478;2023-02-17T03:19:19;96003.41;;;9.16;71.89
19457;BME280;9867;48.094;11.478;2023-02-17T03:21:50;96000.38;;;9.12;71.02
19457;BME280;9867;48.094;11.478;2023-02-17T03:24:18;96004.69;;;9.20;71.50
19457;BME280;9867;48.094;11.478;2023-02-17T03:26:45;96003.41;;;9.16;70.31
19457;BME280;9867;48.094;11.478;2023-02-17T03:29:11;96001.91;;;9.21;69.67
19457;BME280;9867;48.094;11.478;2023-02-17T03:31:38;95991.88;;;9.20;68.38
19457;BME280;9867;48.094;11.478;2023-02-17T03:34:05;96002.69;;;9.30;67.21
19457;BME280;9867;48.094;11.478;2023-02-17T03:36:33;95989.72;;;9.32;67.31
19457;BME280;9867;48.094;11.478;2023-02-17T03:38:59;95991.97;;;9.35;67.86
19457;BME280;9867;48.094;11.478;2023-02-17T03:41:25;95992.13;;;9.33;65.91
19457;BME280;9867;48.094;11.478;2023-02-17T03:43:52;95992.25;;;9.40;67.25
19457;BME280;9867;48.094;11.478;2023-02-17T03:46:18;95991.31;;;9.33;66.11
19457;BME280;9867;48.094;11.478;2023-02-17T03:48:45;95980.59;;;9.37;67.93
19457;BME280;9867;48.094;11.478;2023-02-17T03:51:13;95983.63;;;9.33;65.74
19457;BME280;9867;48.094;11.478;2023-02-17T03:53:41;95989.88;;;9.30;66.00
19457;BME280;9867;48.094;11.478;2023-02-17T03:56:08;95995.00;;;9.30;67.21
19457;BME280;9867;48.094;11.478;2023-02-17T03:58:35;95999.63;;;9.35;66.08
19457;BME280;9867;48.094;11.478;2023-02-17T04:01:02;95992.75;;;9.35;65.90
19457;BME280;9867;48.094;11.478;2023-02-17T04:03:28;95985.25;;;9.34;66.05
19457;BME280;9867;48.094;11.478;2023-02-17T04:05:55;95985.06;;;9.35;65.86
19457;BME280;9867;48.094;11.478;2023-02-17T04:08:22;95982.50;;;9.35;66.71
19457;BME280;9867;48.094;11.478;2023-02-17T04:10:51;95981.09;;;9.33;66.48
19457;BME280;9867;48.094;11.478;2023-02-17T04:13:17;95982.97;;;9.39;67.00
19457;BME280;9867;48.094;11.478;2023-02-17T04:15:44;95976.59;;;9.35;67.17
19457;BME280;9867;48.094;11.478;2023-02-17T04:18:10;95977.53;;;9.42;65.94
19457;BME280;9867;48.094;11.478;2023-02-17T04:20:37;95971.28;;;9.44;66.66
19457;BME280;9867;48.094;11.478;2023-02-17T04:23:03;95973.47;;;9.47;66.71
19457;BME280;9867;48.094;11.478;2023-02-17T04:25:32;95967.38;;;9.48;66.24
19457;BME280;9867;48.094;11.478;2023-02-17T04:27:59;95970.56;;;9.50;66.26
19457;BME280;9867;48.094;11.478;2023-02-17T04:30:25;95985.44;;;9.55;66.25
19457;BME280;9867;48.094;11.478;2023-02-17T04:32:52;95986.38;;;9.62;62.99
19457;BME280;9867;48.094;11.478;2023-02-17T04:35:18;95988.59;;;9.65;63.17
19457;BME280;9867;48.094;11.478;2023-02-17T04:37:45;95985.88;;;9.67;63.17
19457;BME280;9867;48.094;11.478;2023-02-17T04:40:12;95987.56;;;9.74;62.29
19457;BME280;9867;48.094;11.478;2023-02-17T04:42:38;95978.91;;;9.75;61.83
19457;BME280;9867;48.094;11.478;2023-02-17T04:45:06;95982.16;;;9.69;62.20
19457;BME280;9867;48.094;11.478;2023-02-17T04:47:33;95973.97;;;9.74;61.46
19457;BME280;9867;48.094;11.478;2023-02-17T04:49:59;95972.34;;;9.73;62.10
19457;BME280;9867;48.094;11.478;2023-02-17T04:52:26;95967.41;;;9.71;63.06
19457;BME280;9867;48.094;11.478;2023-02-17T04:54:52;95976.13;;;9.62;62.97
19457;BME280;9867;48.094;11.478;2023-02-17T04:57:19;95965.88;;;9.62;63.97
19457;BME280;9867;48.094;11.478;2023-02-17T04:59:45;95971.09;;;9.69;62.45
19457;BME280;9867;48.094;11.478;2023-02-17T05:02:12;95969.97;;;9.71;62.58
19457;BME280;9867;48.094;11.478;2023-02-17T05:04:39;95964.41;;;9.68;62.68
19457;BME280;9867;48.094;11.478;2023-02-17T05:07:05;95964.41;;;9.68;63.22
19457;BME280;9867;48.094;11.478;2023-02-17T05:09:32;95959.88;;;9.70;63.34
19457;BME280;9867;48.094;11.478;2023-02-17T05:11:58;95952.28;;;9.62;64.36
19457;BME280;9867;48.094;11.478;2023-02-17T05:14:24;95955.38;;;9.72;63.48
19457;BME280;9867;48.094;11.478;2023-02-17T05:16:51;95955.84;;;9.75;64.11
19457;BME280;9867;48.094;11.478;2023-02-17T05:19:18;95959.72;;;9.71;64.05
19457;BME280;9867;48.094;11.478;2023-02-17T05:21:44;95956.47;;;9.77;63.52
19457;BME280;9867;48.094;11.478;2023-02-17T05:24:11;95951.19;;;9.79;63.83
19457;BME280;9867;48.094;11.478;2023-02-17T05:26:37;95958.53;;;9.82;62.89
19457;BME280;9867;48.094;11.478;2023-02-17T05:29:04;95942.53;;;9.80;63.50
19457;BME280;9867;48.094;11.478;2023-02-17T05:31:30;95942.53;;;9.80;64.74
19457;BME280;9867;48.094;11.478;2023-02-17T05:33:57;95953.06;;;9.85;63.00
19457;BME280;9867;48.094;11.478;2023-02-17T05:36:24;95949.53;;;9.86;62.78
19457;BME280;9867;48.094;11.478;2023-02-17T05:38:50;95954.38;;;9.81;63.31
19457;BME280;9867;48.094;11.478;2023-02-17T05:41:18;95964.13;;;9.85;62.22
19457;BME280;9867;48.094;11.478;2023-02-17T05:43:45;95955.34;;;9.80;62.99
19457;BME280;9867;48.094;11.478;2023-02-17T05:46:12;95939.16;;;9.79;63.72
19457;BME280;9867;48.094;11.478;2023-02-17T05:48:38;95945.78;;;9.74;63.25
19457;BME280;9867;48.094;11.478;2023-02-17T05:51:05;95943.22;;;9.74;63.38
19457;BME280;9867;48.094;11.478;2023-02-17T05:53:32;95944.34;;;9.71;63.05
19457;BME280;9867;48.094;11.478;2023-02-17T05:55:59;95956.66;;;9.76;62.95
19457;BME280;9867;48.094;11.478;2023-02-17T05:58:25;95943.22;;;9.74;63.10
19457;BME280;9867;48.094;11.478;2023-02-17T06:00:52;95953.75;;;9.79;62.75
19457;BME280;9867;48.094;11.478;2023-02-17T06:03:18;95957.44;;;9.76;63.30
19457;BME280;9867;48.094;11.478;2023-02-17T06:05:45;95957.44;;;9.76;64.55
19457;BME280;9867;48.094;11.478;2023-02-17T06:08:12;95957.94;;;9.72;63.89
19457;BME280;9867;48.094;11.478;2023-02-17T06:10:40;95960.97;;;9.75;64.67
19457;BME280;9867;48.094;11.478;2023-02-17T06:13:06;95969.59;;;9.82;64.38
19457;BME280;9867;48.094;11.478;2023-02-17T06:15:33;95970.22;;;9.84;63.72
19457;BME280;9867;48.094;11.478;2023-02-17T06:17:59;95973.41;;;9.86;64.49
19457;BME280;9867;48.094;11.478;2023-02-17T06:20:26;95979.59;;;9.92;64.45
19457;BME280;9867;48.094;11.478;2023-02-17T06:22:53;95979.00;;;9.90;66.12
19457;BME280;9867;48.094;11.478;2023-02-17T06:25:20;95982.94;;;9.92;67.06
19457;BME280;9867;48.094;11.478;2023-02-17T06:27:47;95984.38;;;9.95;68.93
19457;BME280;9867;48.094;11.478;2023-02-17T06:30:14;95986.59;;;9.98;70.12
19457;BME280;9867;48.094;11.478;2023-02-17T06:32:42;95998.16;;;9.94;74.37
19457;BME280;9867;48.094;11.478;2023-02-17T06:35:08;95993.91;;;9.86;88.76
19457;BME280;9867;48.094;11.478;2023-02-17T06:37:35;95984.03;;;9.75;91.82
19457;BME280;9867;48.094;11.478;2023-02-17T06:40:01;95983.47;;;9.65;94.40
19457;BME280;9867;48.094;11.478;2023-02-17T06:42:28;95978.84;;;9.61;97.62
19457;BME280;9867;48.094;11.478;2023-02-17T06:44:55;95976.28;;;9.61;100.00
19457;BME280;9867;48.094;11.478;2023-02-17T06:47:21;95981.59;;;9.59;100.00
19457;BME280;9867;48.094;11.478;2023-02-17T06:49:48;95982.34;;;9.68;100.00
19457;BME280;9867;48.094;11.478;2023-02-17T06:52:14;95981.19;;;9.70;97.82
19457;BME280;9867;48.094;11.478;2023-02-17T06:54:41;95992.69;;;9.74;95.81
19457;BME280;9867;48.094;11.478;2023-02-17T06:57:07;95978.25;;;9.81;94.77
19457;BME280;9867;48.094;11.478;2023-02-17T06:59:34;95983.69;;;10.01;100.00
19457;BME280;9867;48.094;11.478;2023-02-17T07:02:01;95978.69;;;10.31;100.00
19457;BME280;9867;48.094;11.478;2023-02-17T07:04:28;95991.09;;;10.42;93.84
19457;BME280;9867;48.094;11.478;2023-02-17T07:06:54;95978.88;;;10.44;95.68
19457;BME280;9867;48.094;11.478;2023-02-17T07:09:21;95967.66;;;10.45;98.15
19457;BME280;9867;48.094;11.478;2023-02-17T07:11:47;95971.72;;;10.39;100.00
19457;BME280;9867;48.094;11.478;2023-02-17T07:14:16;95977.22;;;10.36;100.00
19457;BME280;9867;48.094;11.478;2023-02-17T07:16:42;95974.31;;;10.39;100.00
19457;BME280;9867;48.094;11.478;2023-02-17T07:19:09;95965.09;;;10.45;100.00
19457;BME280;9867;48.094;11.478;2023-02-17T07:21:36;95966.97;;;10.51;100.00
19457;BME280;9867;48.094;11.478;2023-02-17T07:24:02;95962.00;;;10.49;100.00
19457;BME280;9867;48.094;11.478;2023-02-17T07:26:29;95977.50;;;10.56;100.00
19457;BME280;9867;48.094;11.478;2023-02-17T07:28:55;95986.28;;;10.62;100.00
19457;BME280;9867;48.094;11.478;2023-02-17T07:31:22;95958.63;;;10.64;100.00
19457;BME280;9867;48.094;11.478;2023-02-17T07:33:48;95983.38;;;10.79;100.00
19457;BME280;9867;48.094;11.478;2023-02-17T07:36:16;95993.72;;;10.86;100.00
19457;BME280;9867;48.094;11.478;2023-02-17T07:38:43;95975.19;;;10.90;100.00
19457;BME280;9867;48.094;11.478;2023-02-17T07:41:11;95978.31;;;11.01;100.00
19457;BME280;9867;48.094;11.478;2023-02-17T07:43:38;95973.81;;;11.03;100.00
19457;BME280;9867;48.094;11.478;2023-02-17T07:46:06;95977.00;;;11.05;100.00
19457;BME280;9867;48.094;11.478;2023-02-17T07:48:33;95984.88;;;11.03;100.00
19457;BME280;9867;48.094;11.478;2023-02-17T07:51:03;95979.72;;;11.03;100.00
19457;BME280;9867;48.094;11.478;2023-02-17T07:53:31;95986.63;;;11.03;100.00
19457;BME280;9867;48.094;11.478;2023-02-17T07:55:57;95983.06;;;11.18;100.00
19457;BME280;9867;48.094;11.478;2023-02-17T07:58:24;95986.09;;;11.07;100.00
19457;BME280;9867;48.094;11.478;2023-02-17T08:00:50;95992.47;;;11.11;100.00
19457;BME280;9867;48.094;11.478;2023-02-17T08:03:16;96011.63;;;11.09;100.00
19457;BME280;9867;48.094;11.478;2023-02-17T08:05:43;95996.00;;;11.10;100.00
19457;BME280;9867;48.094;11.478;2023-02-17T08:08:09;95991.22;;;10.92;100.00
19457;BME280;9867;48.094;11.478;2023-02-17T08:10:59;96000.28;;;11.03;100.00
19457;BME280;9867;48.094;11.478;2023-02-17T08:13:44;95994.25;;;10.96;100.00
19457;BME280;9867;48.094;11.478;2023-02-17T08:16:10;96001.84;;;10.89;100.00
19457;BME280;9867;48.094;11.478;2023-02-17T08:18:37;96001.16;;;10.81;100.00
19457;BME280;9867;48.094;11.478;2023-02-17T08:21:03;95995.84;;;10.82;100.00
19457;BME280;9867;48.094;11.478;2023-02-17T08:23:31;96000.88;;;10.90;100.00
19457;BME280;9867;48.094;11.478;2023-02-17T08:25:58;95985.84;;;11.02;100.00
19457;BME280;9867;48.094;11.478;2023-02-17T08:28:24;95987.94;;;11.13;100.00
19457;BME280;9867;48.094;11.478;2023-02-17T08:30:51;95990.94;;;11.32;100.00
19457;BME280;9867;48.094;11.478;2023-02-17T08:33:17;96025.47;;;11.44;100.00
19457;BME280;9867;48.094;11.478;2023-02-17T08:35:44;95987.56;;;11.46;100.00
19457;BME280;9867;48.094;11.478;2023-02-17T08:38:11;95995.97;;;11.40;100.00
19457;BME280;9867;48.094;11.478;2023-02-17T08:40:37;95999.47;;;11.32;100.00
19457;BME280;9867;48.094;11.478;2023-02-17T08:43:06;96007.69;;;11.27;100.00
19457;BME280;9867;48.094;11.478;2023-02-17T08:45:33;95993.53;;;11.32;100.00
19457;BME280;9867;48.094;11.478;2023-02-17T08:48:01;96007.56;;;11.36;100.00
19457;BME280;9867;48.094;11.478;2023-02-17T08:50:28;95995.00;;;11.41;100.00
19457;BME280;9867;48.094;11.478;2023-02-17T08:52:55;96002.16;;;11.45;100.00
19457;BME280;9867;48.094;11.478;2023-02-17T08:55:21;96011.91;;;11.50;100.00
19457;BME280;9867;48.094;11.478;2023-02-17T08:57:48;96020.59;;;11.49;100.00
19457;BME280;9867;48.094;11.478;2023-02-17T09:00:17;96021.22;;;11.51;100.00
19457;BME280;9867;48.094;11.478;2023-02-17T09:02:43;96028.84;;;11.44;100.00
19457;BME280;9867;48.094;11.478;2023-02-17T09:05:10;96045.59;;;11.40;100.00
19457;BME280;9867;48.094;11.478;2023-02-17T09:07:37;96010.72;;;11.31;100.00
19457;BME280;9867;48.094;11.478;2023-02-17T09:10:05;96033.56;;;11.26;100.00
19457;BME280;9867;48.094;11.478;2023-02-17T09:12:32;96015.03;;;11.16;100.00
19457;BME280;9867;48.094;11.478;2023-02-17T09:14:58;96027.03;;;11.09;100.00
19457;BME280;9867;48.094;11.478;2023-02-17T09:17:25;96003.72;;;10.96;100.00
19457;BME280;9867;48.094;11.478;2023-02-17T09:19:54;96020.00;;;10.88;100.00
19457;BME280;9867;48.094;11.478;2023-02-17T09:22:21;96017.34;;;10.81;100.00
19457;BME280;9867;48.094;11.478;2023-02-17T09:24:57;96046.44;;;10.74;100.00
19457;BME280;9867;48.094;11.478;2023-02-17T09:27:24;96023.59;;;10.64;100.00
19457;BME280;9867;48.094;11.478;2023-02-17T09:29:50;96019.72;;;10.68;100.00
19457;BME280;9867;48.094;11.478;2023-02-17T09:32:17;96024.50;;;10.71;100.00
19457;BME280;9867;48.094;11.478;2023-02-17T09:34:44;96045.06;;;10.86;100.00
19457;BME280;9867;48.094;11.478;2023-02-17T09:37:14;96013.38;;;10.93;100.00
19457;BME280;9867;48.094;11.478;2023-02-17T09:39:42;96024.88;;;10.98;100.00
19457;BME280;9867;48.094;11.478;2023-02-17T09:42:12;96012.03;;;10.98;100.00
19457;BME280;9867;48.094;11.478;2023-02-17T09:44:46;96038.78;;;11.03;100.00
19457;BME280;9867;48.094;11.478;2023-02-17T09:47:16;96030.91;;;11.05;100.00
19457;BME280;9867;48.094;11.478;2023-02-17T09:49:48;96038.88;;;11.10;100.00
19457;BME280;9867;48.094;11.478;2023-02-17T09:52:22;96036.75;;;11.13;100.00
19457;BME280;9867;48.094;11.478;2023-02-17T09:54:59;96041.53;;;11.16;100.00
19457;BME280;9867;48.094;11.478;2023-02-17T09:57:28;96015.66;;;11.18;100.00
19457;BME280;9867;48.094;11.478;2023-02-17T09:59:59;96033.03;;;11.16;100.00
19457;BME280;9867;48.094;11.478;2023-02-17T10:02:39;96036.63;;;11.36;100.00
19457;BME280;9867;48.094;11.478;2023-02-17T10:05:10;96040.19;;;11.50;100.00
19457;BME280;9867;48.094;11.478;2023-02-17T10:07:43;96055.31;;;11.59;100.00
19457;BME280;9867;48.094;11.478;2023-02-17T10:10:15;96038.81;;;11.69;100.00
19457;BME280;9867;48.094;11.478;2023-02-17T10:12:45;96039.69;;;11.76;100.00
19457;BME280;9867;48.094;11.478;2023-02-17T10:15:16;96063.66;;;11.76;100.00
19457;BME280;9867;48.094;11.478;2023-02-17T10:17:50;96031.84;;;11.77;100.00
19457;BME280;9867;48.094;11.478;2023-02-17T10:20:21;96032.44;;;11.79;100.00
19457;BME280;9867;48.094;11.478;2023-02-17T10:22:53;96033.66;;;11.83;100.00
19457;BME280;9867;48.094;11.478;2023-02-17T10:25:27;96018.84;;;11.85;100.00
19457;BME280;9867;48.094;11.478;2023-02-17T10:28:01;96024.50;;;11.95;100.00
19457;BME280;9867;48.094;11.478;2023-02-17T10:30:34;96028.22;;;12.14;100.00
19457;BME280;9867;48.094;11.478;2023-02-17T10:33:11;96029.22;;;12.13;100.00
19457;BME280;9867;48.094;11.478;2023-02-17T10:35:47;96030.44;;;12.17;100.00
19457;BME280;9867;48.094;11.478;2023-02-17T10:38:17;96035.53;;;12.11;100.00
19457;BME280;9867;48.094;11.478;2023-02-17T10:40:46;96030.75;;;12.08;100.00
19457;BME280;9867;48.094;11.478;2023-02-17T10:43:20;96034.53;;;12.12;100.00
19457;BME280;9867;48.094;11.478;2023-02-17T10:45:48;96046.34;;;12.06;100.00
19457;BME280;9867;48.094;11.478;2023-02-17T10:48:19;96037.38;;;12.17;100.00
19457;BME280;9867;48.094;11.478;2023-02-17T10:50:48;96033.53;;;12.27;100.00
19457;BME280;9867;48.094;11.478;2023-02-17T10:53:17;96053.84;;;12.22;100.00
19457;BME280;9867;48.094;11.478;2023-02-17T10:55:52;96049.53;;;12.29;100.00
19457;BME280;9867;48.094;11.478;2023-02-17T10:58:24;96012.88;;;12.21;100.00
19457;BME280;9867;48.094;11.478;2023-02-17T11:00:54;96027.59;;;12.55;100.00
19457;BME280;9867;48.094;11.478;2023-02-17T11:03:23;96052.91;;;12.79;100.00
19457;BME280;9867;48.094;11.478;2023-02-17T11:05:55;96020.91;;;12.88;100.00
19457;BME280;9867;48.094;11.478;2023-02-17T11:08:29;96006.13;;;13.04;100.00
19457;BME280;9867;48.094;11.478;2023-02-17T11:11:02;96055.91;;;13.11;100.00
19457;BME280;9867;48.094;11.478;2023-02-17T11:13:33;96017.03;;;13.06;100.00
19457;BME280;9867;48.094;11.478;2023-02-17T11:16:00;96007.47;;;13.21;100.00
19457;BME280;9867;48.094;11.478;2023-02-17T11:18:28;96016.78;;;13.22;99.89
19457;BME280;9867;48.094;11.478;2023-02-17T11:21:06;95994.78;;;13.26;100.00
19457;BME280;9867;48.094;11.478;2023-02-17T11:23:33;96002.75;;;13.38;98.67
19457;BME280;9867;48.094;11.478;2023-02-17T11:26:08;95992.03;;;13.34;99.97
19457;BME280;9867;48.094;11.478;2023-02-17T11:28:35;95994.81;;;13.32;100.00
19457;BME280;9867;48.094;11.478;2023-02-17T11:31:02;96000.19;;;13.38;100.00
19457;BME280;9867;48.094;11.478;2023-02-17T11:33:32;95999.41;;;13.09;100.00
19457;BME280;9867;48.094;11.478;2023-02-17T11:36:00;96006.59;;;13.14;100.00
19457;BME280;9867;48.094;11.478;2023-02-17T11:38:28;96008.44;;;13.26;100.00
19457;BME280;9867;48.094;11.478;2023-02-17T11:41:00;96007.53;;;13.41;100.00
19457;BME280;9867;48.094;11.478;2023-02-17T11:43:27;96001.06;;;13.71;97.49
19457;BME280;9867;48.094;11.478;2023-02-17T11:45:59;95987.28;;;13.38;99.97
19457;BME280;9867;48.094;11.478;2023-02-17T11:49:02;95980.56;;;13.37;100.00
19457;BME280;9867;48.094;11.478;2023-02-17T11:51:38;95960.72;;;13.37;100.00
19457;BME280;9867;48.094;11.478;2023-02-17T11:54:14;95959.97;;;13.50;100.00
19457;BME280;9867;48.094;11.478;2023-02-17T11:56:47;95988.19;;;13.17;100.00
19457;BME280;9867;48.094;11.478;2023-02-17T11:59:33;95974.69;;;13.15;100.00
19457;BME280;9867;48.094;11.478;2023-02-17T12:02:14;95967.59;;;13.23;100.00
19457;BME280;9867;48.094;11.478;2023-02-17T12:04:51;95972.09;;;13.15;100.00
19457;BME280;9867;48.094;11.478;2023-02-17T12:07:30;95952.25;;;13.09;100.00
19457;BME280;9867;48.094;11.478;2023-02-17T12:10:04;95951.59;;;13.00;100.00
19457;BME280;9867;48.094;11.478;2023-02-17T12:12:44;95954.59;;;12.97;100.00
19457;BME280;9867;48.094;11.478;2023-02-17T12:15:30;95950.88;;;13.13;100.00
19457;BME280;9867;48.094;11.478;2023-02-17T12:18:09;95944.69;;;13.42;100.00
19457;BME280;9867;48.094;11.478;2023-02-17T12:20:49;95981.81;;;13.60;100.00
19457;BME280;9867;48.094;11.478;2023-02-17T12:23:33;95958.97;;;13.51;100.00
19457;BME280;9867;48.094;11.478;2023-02-17T12:26:15;95941.13;;;13.49;100.00
19457;BME280;9867;48.094;11.478;2023-02-17T12:29:01;95938.97;;;13.46;100.00
19457;BME280;9867;48.094;11.478;2023-02-17T12:31:51;95947.84;;;13.37;100.00
19457;BME280;9867;48.094;11.478;2023-02-17T12:34:25;95938.31;;;13.38;100.00
19457;BME280;9867;48.094;11.478;2023-02-17T12:36:56;95936.94;;;13.35;100.00
19457;BME280;9867;48.094;11.478;2023-02-17T12:39:25;95965.31;;;13.42;100.00
19457;BME280;9867;48.094;11.478;2023-02-17T12:41:57;95936.50;;;13.31;100.00
19457;BME280;9867;48.094;11.478;2023-02-17T12:44:27;95933.13;;;13.31;100.00
19457;BME280;9867;48.094;11.478;2023-02-17T12:46:58;95928.00;;;13.38;100.00
19457;BME280;9867;48.094;11.478;2023-02-17T12:49:31;95925.06;;;13.47;100.00
19457;BME280;9867;48.094;11.478;2023-02-17T12:52:05;95932.81;;;13.54;100.00
19457;BME280;9867;48.094;11.478;2023-02-17T12:54:37;95944.91;;;13.53;100.00
19457;BME280;9867;48.094;11.478;2023-02-17T12:57:13;95948.84;;;13.49;100.00
19457;BME280;9867;48.094;11.478;2023-02-17T12:59:41;95956.19;;;13.39;100.00
19457;BME280;9867;48.094;11.478;2023-02-17T13:02:11;95955.59;;;13.44;100.00
19457;BME280;9867;48.094;11.478;2023-02-17T13:04:38;95966.81;;;13.23;100.00
19457;BME280;9867;48.094;11.478;2023-02-17T13:07:34;95970.28;;;13.09;100.00
19457;BME280;9867;48.094;11.478;2023-02-17T13:10:03;95997.81;;;13.08;100.00
19457;BME280;9867;48.094;11.478;2023-02-17T13:12:39;95954.72;;;13.17;100.00
19457;BME280;9867;48.094;11.478;2023-02-17T13:15:33;95992.81;;;12.93;100.00